Brickeys, Arkansas
Current Conditions -  °F | °C
As of 5:55 AM on Friday 21 Nov 2014 (Local Time) from KUTA Reporting Station
Light Rain Light Rain  
Wind Chill: 43°   Ceiling: 1900
Heat Index: 43°   Visibility: 2mi
Dew Point: 37°   Wind: 3mph
Humidity: 81%   Direction: 50°NE
Pressure: 30.3"   Gusts: NA
Location:  34.86°N, 90.59°W
Report Text: KUTA 211155Z AUTO 05003KT 2SM -RA SCT014 BKN019 OVC041 06/03 A3030 RMK AO2 VIS 1 1/2V3
Loading
Personal Weather Stations






























Interactive Weather Map New forecast layout! Learn more

10-Day Weather Forecast

Advertisements
Track Severe Weather on mobile